Time;durP1;ratioP1;P1;durP2;ratioP2;P2;SDS_P1;SDS_P2;PMS_P1;PMS_P2;Temp;Humidity;BMP_temperature;BMP_pressure;BME280_temperature;BME280_humidity;BME280_pressure;Samples;Min_cycle;Max_cycle;Signal;HPM_P1;HPM_P2
2021/06/20 00:01:07;;;;;;;6.18;5.57;;;24.30;57.20;;;;;;4978597;28;20476;-80
2021/06/20 00:03:32;;;;;;;6.25;5.28;;;24.30;57.30;;;;;;4960949;28;20084;-78
2021/06/20 00:06:05;;;;;;;5.78;5.07;;;24.30;57.40;;;;;;4966090;28;20081;-79
2021/06/20 00:08:31;;;;;;;6.38;5.68;;;24.20;57.50;;;;;;4988822;28;20038;-79
2021/06/20 00:10:56;;;;;;;6.85;6.15;;;24.20;57.60;;;;;;4952544;28;20038;-79
2021/06/20 00:13:22;;;;;;;7.55;6.72;;;24.20;57.70;;;;;;4941541;28;20034;-77
2021/06/20 00:15:49;;;;;;;7.05;6.35;;;24.20;57.80;;;;;;4963307;28;20403;-79
2021/06/20 00:18:16;;;;;;;8.00;6.47;;;24.20;57.90;;;;;;4960123;28;20068;-79
2021/06/20 00:20:46;;;;;;;7.38;6.55;;;24.20;58.00;;;;;;4970463;28;20078;-79
2021/06/20 00:23:12;;;;;;;7.22;6.38;;;24.20;58.10;;;;;;4995156;28;20042;-79
2021/06/20 00:25:38;;;;;;;7.43;6.72;;;24.10;58.10;;;;;;4977701;28;20613;-79
2021/06/20 00:28:06;;;;;;;7.53;6.75;;;24.10;58.20;;;;;;4992776;28;20062;-79
2021/06/20 00:30:33;;;;;;;7.55;6.75;;;24.10;58.30;;;;;;4977488;28;20022;-79
2021/06/20 00:33:00;;;;;;;7.55;6.75;;;24.00;58.30;;;;;;4945645;28;20026;-80
2021/06/20 00:35:26;;;;;;;7.75;6.95;;;24.00;58.40;;;;;;4974827;28;20037;-79
2021/06/20 00:37:52;;;;;;;7.57;6.78;;;24.00;58.50;;;;;;4971145;28;20115;-79
2021/06/20 00:40:20;;;;;;;7.40;6.60;;;24.00;58.60;;;;;;4967508;28;20066;-79
2021/06/20 00:42:47;;;;;;;7.70;6.90;;;24.00;58.70;;;;;;4974171;28;20042;-78
2021/06/20 00:45:19;;;;;;;7.70;6.90;;;24.00;58.70;;;;;;4977071;28;20030;-79
2021/06/20 00:47:45;;;;;;;8.20;6.85;;;24.00;58.90;;;;;;4976022;28;20452;-79
2021/06/20 00:50:13;;;;;;;6.97;6.22;;;23.90;58.80;;;;;;4960930;28;20052;-79
2021/06/20 00:52:40;;;;;;;7.18;6.45;;;23.90;58.90;;;;;;4966503;28;20031;-79
2021/06/20 00:55:07;;;;;;;7.72;6.93;;;23.90;58.90;;;;;;4970743;28;20038;-79
2021/06/20 00:57:33;;;;;;;7.65;6.82;;;23.90;59.00;;;;;;4952623;28;20472;-79
2021/06/20 01:00:01;;;;;;;7.45;6.65;;;23.90;59.10;;;;;;4993967;28;20045;-79
2021/06/20 01:02:27;;;;;;;7.80;6.63;;;23.90;59.10;;;;;;4994141;28;20035;-79
2021/06/20 01:04:55;;;;;;;7.32;6.55;;;23.90;59.10;;;;;;4975000;28;20141;-79
2021/06/20 01:07:22;;;;;;;7.60;6.80;;;23.80;59.10;;;;;;4968789;28;20036;-79
2021/06/20 01:09:50;;;;;;;7.72;6.93;;;23.90;59.20;;;;;;4964974;28;20407;-79
2021/06/20 01:12:17;;;;;;;7.07;6.35;;;23.80;59.30;;;;;;4993021;28;20030;-79
2021/06/20 01:14:44;;;;;;;7.28;6.57;;;23.80;59.30;;;;;;4976539;28;20038;-80
2021/06/20 01:17:10;;;;;;;8.20;6.45;;;23.80;59.40;;;;;;4957422;28;20463;-79
2021/06/20 01:19:37;;;;;;;7.35;6.65;;;23.70;59.30;;;;;;4958367;28;20045;-80
2021/06/20 01:22:16;;;;;;;7.05;6.30;;;23.70;59.30;;;;;;4987082;28;20105;-80
2021/06/20 01:24:42;;;;;;;6.78;5.97;;;23.70;59.40;;;;;;4970571;28;20051;-79
2021/06/20 01:27:10;;;;;;;6.70;5.75;;;23.70;59.30;;;;;;4987008;28;20026;-80
2021/06/20 01:29:44;;;;;;;6.22;5.63;;;23.70;59.30;;;;;;4955803;28;20031;-80
2021/06/20 01:32:11;;;;;;;6.57;5.60;;;23.70;59.30;;;;;;4960443;28;20043;-78
2021/06/20 01:34:36;;;;;;;6.85;5.68;;;23.70;59.30;;;;;;4993655;28;20034;-79
2021/06/20 01:37:02;;;;;;;6.32;5.50;;;23.70;59.30;;;;;;4943492;28;20868;-79
2021/06/20 01:39:28;;;;;;;7.97;5.55;;;23.70;59.30;;;;;;4970359;28;20042;-79
2021/06/20 01:41:54;;;;;;;6.43;5.60;;;23.60;59.30;;;;;;4965997;28;20030;-79
2021/06/20 01:44:19;;;;;;;6.72;5.45;;;23.60;59.30;;;;;;4972481;28;20066;-79
2021/06/20 01:46:49;;;;;;;6.47;5.32;;;23.70;59.40;;;;;;4994338;28;20060;-79
2021/06/20 01:49:15;;;;;;;6.20;5.57;;;23.60;59.30;;;;;;4971553;28;20480;-79
2021/06/20 01:51:45;;;;;;;6.30;5.15;;;23.60;59.30;;;;;;4960646;28;20045;-79
2021/06/20 01:54:11;;;;;;;5.68;4.97;;;23.60;59.40;;;;;;4976881;28;20129;-79
2021/06/20 01:56:37;;;;;;;6.15;5.00;;;23.60;59.30;;;;;;4965365;28;20046;-79
2021/06/20 01:59:02;;;;;;;6.25;5.10;;;23.60;59.30;;;;;;4982998;28;20062;-78
2021/06/20 02:01:30;;;;;;;6.88;5.10;;;23.60;59.20;;;;;;4951197;28;20132;-79
2021/06/20 02:03:56;;;;;;;5.80;4.88;;;23.60;59.30;;;;;;4989090;28;20069;-79
2021/06/20 02:06:22;;;;;;;7.38;4.97;;;23.50;59.20;;;;;;4970364;28;20057;-79
2021/06/20 02:08:47;;;;;;;5.88;4.45;;;23.60;59.30;;;;;;4986788;28;20092;-79
2021/06/20 02:11:13;;;;;;;4.97;4.28;;;23.50;59.20;;;;;;4971503;28;20033;-79
2021/06/20 02:13:39;;;;;;;5.80;4.60;;;23.50;59.20;;;;;;4949008;28;20591;-79
2021/06/20 02:16:05;;;;;;;5.63;4.72;;;23.50;59.20;;;;;;4990076;28;20031;-79
2021/06/20 02:18:32;;;;;;;5.43;4.45;;;23.50;59.20;;;;;;4993597;28;20034;-79
2021/06/20 02:20:58;;;;;;;5.70;4.50;;;23.50;59.20;;;;;;4991729;28;20141;-79
2021/06/20 02:23:24;;;;;;;5.32;4.35;;;23.50;59.20;;;;;;4959511;28;20133;-79
2021/06/20 02:25:50;;;;;;;4.93;4.28;;;23.50;59.20;;;;;;4974801;28;20104;-79
2021/06/20 02:28:15;;;;;;;5.65;4.38;;;23.50;59.20;;;;;;4974559;28;20161;-79
2021/06/20 02:30:42;;;;;;;4.55;3.97;;;23.50;59.20;;;;;;4976210;28;20391;-79
2021/06/20 02:33:08;;;;;;;5.45;4.85;;;23.50;59.10;;;;;;4975118;28;20062;-79
2021/06/20 02:35:34;;;;;;;5.57;4.25;;;23.50;59.20;;;;;;4975858;28;20057;-79
2021/06/20 02:38:00;;;;;;;5.30;4.45;;;23.50;59.10;;;;;;4974842;28;20026;-79
2021/06/20 02:40:25;;;;;;;4.10;3.50;;;23.50;59.10;;;;;;4957176;28;20042;-80
2021/06/20 02:42:51;;;;;;;5.20;4.28;;;23.50;59.10;;;;;;4987542;28;20456;-78
2021/06/20 02:45:20;;;;;;;5.40;4.43;;;23.50;59.20;;;;;;4971482;28;20471;-79
2021/06/20 02:47:46;;;;;;;5.32;4.07;;;23.50;59.20;;;;;;4986377;28;20101;-79
2021/06/20 02:50:15;;;;;;;5.20;4.55;;;23.40;59.10;;;;;;4961251;28;20027;-79
2021/06/20 02:52:41;;;;;;;5.28;4.20;;;23.40;59.20;;;;;;4968577;28;20483;-79
2021/06/20 02:55:07;;;;;;;4.90;4.25;;;23.40;59.20;;;;;;4990943;28;20037;-79
2021/06/20 02:57:33;;;;;;;5.32;4.40;;;23.40;59.10;;;;;;4975739;28;20033;-79
2021/06/20 03:00:03;;;;;;;5.75;4.63;;;23.40;59.20;;;;;;4951265;28;20113;-78
2021/06/20 03:02:29;;;;;;;5.55;4.65;;;23.40;59.20;;;;;;4963974;28;20034;-79
2021/06/20 03:04:56;;;;;;;5.70;4.90;;;23.40;59.20;;;;;;4954793;28;20038;-78
2021/06/20 03:07:23;;;;;;;6.13;4.45;;;23.40;59.20;;;;;;4968191;28;20483;-78
2021/06/20 03:09:49;;;;;;;5.82;4.82;;;23.40;59.20;;;;;;4974539;28;20058;-79
2021/06/20 03:12:16;;;;;;;5.10;4.10;;;23.40;59.20;;;;;;4962996;28;20027;-78
2021/06/20 03:14:43;;;;;;;5.85;4.68;;;23.40;59.20;;;;;;4984521;28;20110;-78
2021/06/20 03:17:10;;;;;;;5.78;4.63;;;23.40;59.20;;;;;;4970386;28;20034;-78
2021/06/20 03:19:38;;;;;;;5.10;4.18;;;23.40;59.20;;;;;;4992956;28;20583;-78
2021/06/20 03:22:06;;;;;;;5.90;5.05;;;23.40;59.30;;;;;;4968587;28;20117;-78
2021/06/20 03:24:34;;;;;;;5.90;4.50;;;23.40;59.20;;;;;;4966153;28;20031;-78
2021/06/20 03:27:01;;;;;;;6.18;4.57;;;23.40;59.30;;;;;;4975738;28;20450;-78
2021/06/20 03:29:27;;;;;;;5.88;5.15;;;23.40;59.30;;;;;;4975049;28;20027;-78
2021/06/20 03:31:54;;;;;;;5.60;4.97;;;23.40;59.30;;;;;;4969024;28;20034;-78
2021/06/20 03:34:20;;;;;;;6.00;4.90;;;23.40;59.30;;;;;;4941911;28;20037;-79
2021/06/20 03:36:46;;;;;;;6.30;5.40;;;23.40;59.30;;;;;;4970848;28;20042;-78
2021/06/20 03:39:13;;;;;;;5.72;4.80;;;23.40;59.30;;;;;;4963966;28;20035;-79
2021/06/20 03:41:39;;;;;;;6.00;5.18;;;23.40;59.30;;;;;;4975043;28;20018;-78
2021/06/20 03:44:06;;;;;;;6.30;5.68;;;23.40;59.40;;;;;;4973461;28;20046;-78
2021/06/20 03:46:36;;;;;;;6.10;5.30;;;23.30;59.40;;;;;;4975421;28;20090;-78
2021/06/20 03:49:03;;;;;;;6.78;5.78;;;23.30;59.40;;;;;;4973159;28;20542;-78
2021/06/20 03:51:32;;;;;;;6.13;5.22;;;23.40;59.50;;;;;;4989079;28;20389;-79
2021/06/20 03:53:58;;;;;;;7.57;6.03;;;23.30;59.40;;;;;;4958678;28;20065;-78
2021/06/20 03:56:24;;;;;;;7.43;6.13;;;23.30;59.40;;;;;;4954370;28;20026;-79
2021/06/20 03:58:50;;;;;;;7.07;6.05;;;23.30;59.40;;;;;;4957357;28;20115;-78
2021/06/20 04:01:16;;;;;;;6.60;5.78;;;23.30;59.40;;;;;;4982270;28;20110;-79
2021/06/20 04:03:42;;;;;;;7.43;6.32;;;23.40;59.40;;;;;;4959155;28;20130;-79
2021/06/20 04:06:07;;;;;;;7.50;6.38;;;23.40;59.50;;;;;;4949443;28;20126;-79
2021/06/20 04:08:33;;;;;;;7.68;6.75;;;23.30;59.40;;;;;;4992613;28;20027;-79
2021/06/20 04:10:59;;;;;;;8.23;6.38;;;23.40;59.50;;;;;;4958437;28;20035;-79
2021/06/20 04:13:25;;;;;;;7.30;6.57;;;23.40;59.50;;;;;;4968443;28;20303;-79
2021/06/20 04:15:50;;;;;;;7.22;6.50;;;23.30;59.50;;;;;;4988641;28;20027;-79
2021/06/20 04:18:16;;;;;;;7.45;6.65;;;23.30;59.50;;;;;;4984744;28;20038;-79
2021/06/20 04:20:42;;;;;;;7.63;6.43;;;23.30;59.50;;;;;;4986053;28;20057;-79
2021/06/20 04:23:09;;;;;;;7.00;6.28;;;23.30;59.60;;;;;;4940114;28;20038;-79
2021/06/20 04:25:35;;;;;;;7.88;7.07;;;23.30;59.60;;;;;;4978373;28;20540;-78
2021/06/20 04:28:01;;;;;;;7.35;6.47;;;23.30;59.60;;;;;;4953187;28;20122;-79
2021/06/20 04:30:27;;;;;;;7.80;7.00;;;23.30;59.60;;;;;;4932452;29;20027;-79
2021/06/20 04:32:53;;;;;;;7.65;6.82;;;23.30;60.30;;;;;;4963869;28;20157;-79
2021/06/20 04:35:20;;;;;;;7.70;6.90;;;23.30;59.70;;;;;;4986655;28;20474;-79
2021/06/20 04:37:46;;;;;;;7.78;6.97;;;23.30;59.80;;;;;;4958718;28;20069;-78
2021/06/20 04:40:21;;;;;;;7.78;6.75;;;23.30;59.80;;;;;;4974347;28;20023;-79
2021/06/20 04:42:55;;;;;;;7.65;6.82;;;23.30;59.80;;;;;;4946118;28;20107;-79
2021/06/20 04:45:22;;;;;;;8.32;6.50;;;23.30;59.80;;;;;;4954989;28;20035;-79
2021/06/20 04:47:47;;;;;;;7.50;6.57;;;23.20;59.80;;;;;;4967318;28;20038;-79
2021/06/20 04:50:13;;;;;;;7.90;6.75;;;23.20;59.80;;;;;;4956447;28;20019;-79
2021/06/20 04:52:42;;;;;;;7.63;6.53;;;23.20;59.80;;;;;;4993825;28;20023;-79
2021/06/20 04:55:10;;;;;;;8.52;7.63;;;23.20;59.90;;;;;;4973750;28;20042;-79
2021/06/20 04:57:36;;;;;;;8.93;7.82;;;23.20;59.90;;;;;;4989971;28;20035;-79
2021/06/20 05:00:04;;;;;;;8.25;7.35;;;23.10;59.90;;;;;;4951313;28;20030;-79
2021/06/20 05:02:30;;;;;;;7.97;6.55;;;23.10;59.90;;;;;;4954938;28;20403;-79
2021/06/20 05:04:56;;;;;;;8.68;7.65;;;23.10;60.00;;;;;;4973645;28;20059;-79
2021/06/20 05:07:22;;;;;;;9.52;7.72;;;23.10;60.10;;;;;;4949190;28;20503;-79
2021/06/20 05:09:48;;;;;;;8.45;7.55;;;23.10;60.00;;;;;;4959854;28;20027;-79
2021/06/20 05:12:15;;;;;;;9.23;7.85;;;23.10;60.10;;;;;;4961470;28;20035;-78
2021/06/20 05:14:44;;;;;;;8.68;7.38;;;23.10;60.10;;;;;;4956553;28;20038;-78
2021/06/20 05:17:11;;;;;;;8.27;7.10;;;23.10;60.10;;;;;;4957829;28;20074;-78
2021/06/20 05:19:38;;;;;;;8.23;7.32;;;23.10;60.20;;;;;;4956719;28;20403;-79
2021/06/20 05:22:04;;;;;;;8.98;7.57;;;23.10;60.20;;;;;;4988895;28;20065;-79
2021/06/20 05:24:30;;;;;;;9.85;8.00;;;23.10;60.20;;;;;;4957957;28;20452;-79
2021/06/20 05:26:56;;;;;;;9.70;8.38;;;23.10;60.20;;;;;;4967508;28;20035;-79
2021/06/20 05:29:22;;;;;;;8.82;7.90;;;23.10;60.30;;;;;;4973492;28;20027;-79
2021/06/20 05:31:48;;;;;;;9.10;7.80;;;23.10;60.30;;;;;;4973457;28;20499;-79
2021/06/20 05:34:14;;;;;;;9.25;8.07;;;23.10;60.40;;;;;;4958966;28;20034;-78
2021/06/20 05:36:40;;;;;;;9.32;8.20;;;23.10;60.40;;;;;;4966703;28;20480;-79
2021/06/20 05:39:06;;;;;;;8.55;7.38;;;23.00;60.40;;;;;;4957816;28;20495;-79
2021/06/20 05:41:32;;;;;;;9.95;8.75;;;23.00;60.40;;;;;;4972873;28;20065;-80
2021/06/20 05:43:58;;;;;;;9.48;8.38;;;23.00;60.50;;;;;;4948364;28;20046;-79
2021/06/20 05:46:25;;;;;;;9.70;7.97;;;23.00;60.50;;;;;;4971603;28;20034;-79
2021/06/20 05:48:51;;;;;;;9.50;8.50;;;23.00;60.50;;;;;;4951303;28;20035;-79
2021/06/20 05:51:17;;;;;;;9.45;7.82;;;23.00;60.50;;;;;;4972501;28;20121;-79
2021/06/20 05:53:43;;;;;;;9.35;8.20;;;23.00;60.60;;;;;;4984534;28;20108;-79
2021/06/20 05:56:09;;;;;;;9.60;8.20;;;23.00;60.60;;;;;;4972839;28;20046;-79
2021/06/20 05:58:35;;;;;;;8.98;7.75;;;23.00;60.60;;;;;;4973117;28;20471;-79
2021/06/20 06:01:01;;;;;;;9.70;8.35;;;23.00;60.60;;;;;;4950098;28;20031;-79
2021/06/20 06:03:27;;;;;;;9.20;8.18;;;22.90;60.50;;;;;;4972833;28;20035;-79
2021/06/20 06:05:53;;;;;;;10.00;8.30;;;22.90;60.60;;;;;;4969757;28;20027;-79
2021/06/20 06:08:19;;;;;;;9.70;8.05;;;22.90;60.60;;;;;;4976398;28;20042;-79
2021/06/20 06:10:44;;;;;;;8.80;7.40;;;22.90;60.60;;;;;;4964066;28;20028;-79
2021/06/20 06:13:10;;;;;;;9.80;8.20;;;22.90;60.70;;;;;;4947051;28;20027;-78
2021/06/20 06:15:36;;;;;;;10.00;7.90;;;22.90;60.70;;;;;;4947003;28;20027;-80
2021/06/20 06:18:02;;;;;;;9.43;7.70;;;22.90;60.70;;;;;;4956397;28;20150;-80
2021/06/20 06:20:28;;;;;;;10.88;8.18;;;22.90;60.70;;;;;;4973469;28;20093;-80
2021/06/20 06:22:56;;;;;;;10.23;8.60;;;22.90;60.80;;;;;;4975499;28;20050;-81
2021/06/20 06:25:21;;;;;;;10.02;8.50;;;22.90;60.80;;;;;;4975309;28;20550;-79
2021/06/20 06:27:47;;;;;;;8.70;7.57;;;22.90;60.80;;;;;;4957492;28;20058;-80
2021/06/20 06:30:14;;;;;;;9.43;7.75;;;22.90;60.80;;;;;;4957839;28;20030;-80
2021/06/20 06:32:42;;;;;;;8.93;8.00;;;22.90;61.50;;;;;;4958952;28;20042;-80
2021/06/20 06:35:08;;;;;;;10.13;8.65;;;22.90;60.90;;;;;;4992566;28;20030;-80
2021/06/20 06:37:35;;;;;;;10.38;8.77;;;22.90;60.90;;;;;;4990860;28;20022;-80
2021/06/20 06:40:03;;;;;;;10.95;8.70;;;22.90;61.00;;;;;;4958316;28;20031;-80
2021/06/20 06:42:29;;;;;;;10.00;8.20;;;22.90;61.10;;;;;;4959024;28;20073;-80
2021/06/20 06:44:58;;;;;;;9.80;7.78;;;22.90;61.00;;;;;;4967535;28;20078;-80
2021/06/20 06:47:24;;;;;;;10.18;8.23;;;22.90;61.00;;;;;;4959125;28;20204;-80
2021/06/20 06:49:50;;;;;;;9.55;8.02;;;22.90;61.00;;;;;;4958475;28;20113;-80
2021/06/20 06:52:17;;;;;;;9.82;7.82;;;22.90;61.00;;;;;;4972261;28;20566;-79
2021/06/20 06:54:52;;;;;;;9.50;8.02;;;22.90;61.10;;;;;;4987836;28;20038;-80
2021/06/20 06:57:24;;;;;;;9.63;8.05;;;22.80;61.10;;;;;;4965138;28;20038;-80
2021/06/20 06:59:51;;;;;;;8.60;7.60;;;22.90;61.20;;;;;;4984901;28;20022;-80
2021/06/20 07:02:17;;;;;;;9.95;7.95;;;22.90;61.20;;;;;;4958211;28;20382;-79
2021/06/20 07:04:44;;;;;;;9.55;8.07;;;22.90;61.20;;;;;;4991553;28;20074;-80
2021/06/20 07:07:10;;;;;;;9.52;8.15;;;22.90;61.20;;;;;;4939721;28;20038;-80
2021/06/20 07:09:35;;;;;;;9.38;7.38;;;22.90;61.20;;;;;;4951333;28;20492;-80
2021/06/20 07:12:01;;;;;;;9.15;8.18;;;22.90;61.30;;;;;;4973663;28;20045;-80
2021/06/20 07:14:29;;;;;;;9.95;7.95;;;22.90;61.30;;;;;;4924999;28;20579;-81
2021/06/20 07:16:55;;;;;;;10.13;8.82;;;22.90;61.30;;;;;;4986844;28;20062;-80
2021/06/20 07:19:21;;;;;;;9.35;8.15;;;22.90;61.30;;;;;;4985584;28;20100;-81
2021/06/20 07:21:47;;;;;;;10.13;8.43;;;22.90;61.40;;;;;;4959125;28;20491;-81
2021/06/20 07:24:13;;;;;;;9.70;8.52;;;22.90;61.40;;;;;;4974468;28;20057;-80
2021/06/20 07:26:38;;;;;;;10.05;8.60;;;23.00;61.40;;;;;;4942460;28;20558;-81
2021/06/20 07:29:04;;;;;;;9.75;8.25;;;23.00;61.40;;;;;;4952898;28;20038;-81
2021/06/20 07:31:30;;;;;;;9.55;8.15;;;23.00;61.40;;;;;;4992375;28;20026;-80
2021/06/20 07:33:55;;;;;;;10.40;8.75;;;23.00;61.40;;;;;;4941341;28;20061;-81
2021/06/20 07:36:21;;;;;;;10.38;8.70;;;23.00;61.40;;;;;;4945590;28;20026;-81
2021/06/20 07:38:47;;;;;;;10.07;8.40;;;23.00;61.40;;;;;;4958975;28;20122;-80
2021/06/20 07:41:14;;;;;;;10.55;8.82;;;23.00;61.40;;;;;;4951518;28;20364;-81
2021/06/20 07:43:40;;;;;;;10.70;8.65;;;23.00;61.40;;;;;;4953958;28;20579;-81
2021/06/20 07:46:06;;;;;;;10.77;9.25;;;23.00;61.40;;;;;;4975032;28;20113;-80
2021/06/20 07:48:32;;;;;;;10.77;8.63;;;23.00;61.40;;;;;;5002262;28;20098;-82
2021/06/20 07:50:58;;;;;;;10.40;8.75;;;23.00;61.50;;;;;;4955276;28;20062;-81
2021/06/20 07:53:24;;;;;;;9.68;8.57;;;23.00;61.50;;;;;;4962854;28;20058;-79
2021/06/20 07:55:50;;;;;;;9.90;8.27;;;23.10;61.50;;;;;;4946966;28;20045;-83
2021/06/20 07:58:16;;;;;;;9.13;7.63;;;23.10;61.50;;;;;;4992887;28;20027;-86
2021/06/20 08:00:42;;;;;;;9.50;8.35;;;23.10;61.50;;;;;;4959108;28;20469;-84
2021/06/20 08:03:08;;;;;;;10.57;9.18;;;23.10;61.50;;;;;;4950285;28;20011;-82
2021/06/20 08:05:35;;;;;;;10.07;8.15;;;23.10;61.50;;;;;;4963164;28;20042;-83
2021/06/20 08:08:01;;;;;;;9.10;7.72;;;23.10;61.50;;;;;;4952316;28;20053;-85
2021/06/20 08:10:27;;;;;;;10.27;8.38;;;23.20;61.60;;;;;;4994667;28;20037;-84
2021/06/20 08:12:52;;;;;;;9.85;8.15;;;23.20;61.60;;;;;;4979918;28;20117;-85
2021/06/20 08:15:18;;;;;;;9.23;7.80;;;23.20;61.50;;;;;;4962703;28;20030;-83
2021/06/20 08:17:44;;;;;;;9.45;8.20;;;23.20;61.50;;;;;;4963084;28;20038;-81
2021/06/20 08:20:12;;;;;;;9.30;7.55;;;23.30;61.50;;;;;;4973945;28;20027;-82
2021/06/20 08:22:40;;;;;;;9.23;7.55;;;23.30;61.50;;;;;;4991903;28;20485;-80
2021/06/20 08:25:07;;;;;;;9.20;7.40;;;23.30;61.40;;;;;;4979079;28;20050;-83
2021/06/20 08:27:34;;;;;;;9.45;7.57;;;23.30;61.40;;;;;;4963019;28;20034;-87
2021/06/20 08:30:00;;;;;;;8.90;6.90;;;23.40;61.40;;;;;;4979731;28;20030;-86
2021/06/20 08:32:29;;;;;;;9.60;7.68;;;23.40;61.30;;;;;;4963271;28;20030;-86
2021/06/20 08:34:54;;;;;;;9.07;6.97;;;23.40;61.30;;;;;;4979355;28;20022;-85
2021/06/20 08:37:20;;;;;;;9.93;7.47;;;23.40;61.30;;;;;;4963111;28;20030;-85
2021/06/20 08:39:46;;;;;;;8.57;7.03;;;23.50;61.30;;;;;;4962771;28;20031;-84
2021/06/20 08:42:12;;;;;;;8.73;6.95;;;23.50;61.30;;;;;;4962805;28;20038;-83
2021/06/20 08:44:38;;;;;;;8.07;6.65;;;23.50;61.20;;;;;;4962359;28;20046;-83
2021/06/20 08:47:04;;;;;;;8.30;6.72;;;23.50;61.20;;;;;;4962216;28;20030;-84
2021/06/20 08:49:31;;;;;;;8.52;6.90;;;23.50;61.20;;;;;;4952890;28;20037;-83
2021/06/20 08:51:59;;;;;;;8.18;7.13;;;23.50;61.20;;;;;;4962464;28;20550;-85
2021/06/20 08:54:25;;;;;;;8.00;6.68;;;23.60;61.20;;;;;;4983694;28;20069;-82
2021/06/20 08:56:52;;;;;;;8.30;6.63;;;23.50;61.10;;;;;;4985662;28;20068;-87
2021/06/20 08:59:19;;;;;;;8.25;6.28;;;23.60;61.10;;;;;;4974760;28;20046;-86
2021/06/20 09:01:46;;;;;;;8.50;6.45;;;23.60;61.10;;;;;;4960765;28;20085;-84
2021/06/20 09:04:13;;;;;;;8.45;6.60;;;23.60;61.10;;;;;;4994886;28;20122;-85
2021/06/20 09:06:39;;;;;;;8.80;6.80;;;23.60;61.10;;;;;;4943587;28;20030;-83
2021/06/20 09:09:09;;;;;;;8.52;6.55;;;23.60;61.00;;;;;;4990776;28;20038;-86
2021/06/20 09:11:40;;;;;;;7.47;5.90;;;23.60;61.00;;;;;;4978604;28;20026;-86
2021/06/20 09:14:12;;;;;;;7.93;6.32;;;23.60;61.00;;;;;;4982477;28;20034;-84
2021/06/20 09:16:46;;;;;;;7.85;6.45;;;23.70;61.10;;;;;;4995362;28;20022;-85
2021/06/20 09:19:13;;;;;;;7.25;5.72;;;23.70;61.10;;;;;;4992060;28;20126;-86
2021/06/20 09:21:39;;;;;;;7.97;6.05;;;23.70;61.00;;;;;;4974843;28;20051;-86
2021/06/20 09:24:05;;;;;;;8.02;6.18;;;23.70;61.00;;;;;;4961968;28;20116;-85
2021/06/20 09:26:39;;;;;;;7.80;6.13;;;23.70;61.00;;;;;;4976874;28;20030;-84
2021/06/20 09:29:06;;;;;;;7.57;5.93;;;23.70;61.00;;;;;;4993075;28;20463;-84
2021/06/20 09:31:53;;;;;;;6.90;5.50;;;23.70;61.00;;;;;;4976475;28;20030;-85
2021/06/20 09:34:19;;;;;;;6.60;5.47;;;23.70;61.10;;;;;;4995405;28;20105;-85
2021/06/20 09:36:46;;;;;;;7.82;5.93;;;23.70;60.90;;;;;;4961866;28;20470;-85
2021/06/20 09:39:20;;;;;;;7.03;5.80;;;23.70;60.90;;;;;;4957932;28;20069;-84
2021/06/20 09:42:15;;;;;;;7.38;5.47;;;23.80;61.00;;;;;;4953406;28;20053;-84
2021/06/20 09:44:45;;;;;;;6.03;4.85;;;23.80;61.00;;;;;;4974213;28;20043;-86
2021/06/20 09:47:12;;;;;;;7.20;5.22;;;23.90;60.80;;;;;;4960087;28;20029;-84
2021/06/20 09:49:38;;;;;;;6.35;5.20;;;23.90;60.80;;;;;;4973721;28;20034;-83
2021/06/20 09:52:05;;;;;;;7.20;5.30;;;23.90;60.70;;;;;;4976029;28;20054;-85
2021/06/20 09:54:33;;;;;;;6.75;5.22;;;23.90;60.70;;;;;;4968419;28;20037;-85
2021/06/20 09:57:00;;;;;;;5.95;4.65;;;24.00;60.70;;;;;;4978098;28;20109;-88
2021/06/20 09:59:31;;;;;;;6.53;4.82;;;24.00;60.70;;;;;;4990582;28;20042;-87
2021/06/20 10:02:11;;;;;;;7.03;4.63;;;24.00;60.60;;;;;;4955571;28;20039;-86
2021/06/20 10:04:40;;;;;;;5.90;4.63;;;24.10;60.70;;;;;;4981234;28;20038;-86
2021/06/20 10:07:10;;;;;;;5.85;4.47;;;24.20;60.50;;;;;;4976811;28;20022;-86
2021/06/20 10:09:38;;;;;;;5.68;4.10;;;24.20;60.40;;;;;;4994633;28;20030;-86
2021/06/20 10:12:06;;;;;;;5.80;4.28;;;24.30;60.40;;;;;;4978064;28;20038;-86
2021/06/20 10:14:33;;;;;;;6.38;4.55;;;24.40;60.30;;;;;;4977709;28;20053;-89
2021/06/20 10:17:06;;;;;;;5.55;4.30;;;24.40;60.20;;;;;;4987864;28;20037;-87
2021/06/20 10:19:31;;;;;;;5.78;3.95;;;24.50;60.20;;;;;;4963882;28;20035;-87
2021/06/20 10:22:06;;;;;;;5.40;3.88;;;24.50;60.10;;;;;;4977099;28;20050;-87
2021/06/20 10:24:53;;;;;;;5.78;4.05;;;24.60;60.10;;;;;;4964138;28;20498;-89
2021/06/20 10:27:35;;;;;;;4.43;3.55;;;24.60;60.00;;;;;;4961714;28;20031;-87
2021/06/20 10:30:11;;;;;;;4.88;3.45;;;24.70;60.00;;;;;;4976968;28;20113;-87
2021/06/20 10:32:46;;;;;;;4.97;3.58;;;24.80;59.90;;;;;;4977634;28;20030;-88
2021/06/20 10:35:21;;;;;;;5.05;3.88;;;24.80;59.80;;;;;;4977684;28;20483;-85
2021/06/20 10:37:49;;;;;;;5.45;3.67;;;24.80;59.70;;;;;;4994693;28;20022;-86
2021/06/20 10:40:30;;;;;;;5.28;3.75;;;24.90;59.70;;;;;;4977098;28;20097;-86
2021/06/20 10:42:59;;;;;;;5.25;3.47;;;25.00;59.80;;;;;;4961030;28;20025;-87
2021/06/20 10:45:38;;;;;;;4.38;3.17;;;25.00;59.50;;;;;;4976832;28;20035;-87
2021/06/20 10:48:16;;;;;;;4.00;2.97;;;25.10;59.60;;;;;;4994438;28;20058;-88
2021/06/20 10:50:46;;;;;;;4.55;3.05;;;25.20;59.50;;;;;;4960462;28;20027;-87
2021/06/20 10:53:12;;;;;;;4.28;3.17;;;25.20;59.30;;;;;;4990126;28;20037;-86
2021/06/20 10:56:04;;;;;;;3.92;3.20;;;25.30;59.30;;;;;;4993095;28;20030;-86
2021/06/20 10:58:34;;;;;;;4.88;3.38;;;25.40;59.40;;;;;;4955416;28;20034;-85
2021/06/20 11:01:07;;;;;;;4.68;3.13;;;25.40;59.10;;;;;;4959153;28;20566;-84
2021/06/20 11:03:33;;;;;;;3.92;2.75;;;25.50;59.20;;;;;;4975667;28;20033;-84
2021/06/20 11:06:11;;;;;;;4.07;2.97;;;25.50;59.00;;;;;;4976514;28;20054;-85
2021/06/20 11:08:43;;;;;;;4.07;2.97;;;25.70;59.20;;;;;;4960650;28;20113;-85
2021/06/20 11:11:51;;;;;;;3.60;2.65;;;25.70;58.90;;;;;;4986408;28;20027;-84
2021/06/20 11:14:19;;;;;;;4.25;2.90;;;25.80;59.10;;;;;;4948597;28;20042;-84
2021/06/20 11:16:49;;;;;;;4.20;2.80;;;25.90;58.80;;;;;;4956496;28;20023;-84
2021/06/20 11:19:25;;;;;;;3.83;2.83;;;25.90;58.80;;;;;;4958240;28;20153;-84
2021/06/20 11:21:56;;;;;;;3.90;2.90;;;25.90;58.80;;;;;;4947875;28;20053;-84
2021/06/20 11:24:28;;;;;;;4.50;2.70;;;26.00;58.80;;;;;;4974830;28;20046;-85
2021/06/20 11:26:59;;;;;;;3.50;2.67;;;26.00;58.70;;;;;;4972261;28;20034;-85
2021/06/20 11:29:46;;;;;;;3.33;2.70;;;26.10;58.70;;;;;;4973297;28;20483;-85
2021/06/20 11:32:15;;;;;;;3.88;2.72;;;26.20;58.70;;;;;;4956086;28;20047;-85
2021/06/20 11:34:53;;;;;;;3.55;2.60;;;26.20;58.60;;;;;;4974187;28;20059;-84
2021/06/20 11:37:23;;;;;;;3.33;2.60;;;26.20;58.60;;;;;;4962342;28;20027;-85
2021/06/20 11:39:53;;;;;;;4.15;2.90;;;26.30;58.50;;;;;;4968748;28;20020;-85
2021/06/20 11:42:40;;;;;;;4.43;2.67;;;26.30;58.50;;;;;;4968006;28;20035;-85
2021/06/20 11:45:19;;;;;;;3.13;2.40;;;26.30;58.60;;;;;;4965420;28;20045;-85
2021/06/20 11:47:48;;;;;;;2.58;2.20;;;26.40;58.50;;;;;;4967377;28;20027;-84
2021/06/20 11:50:16;;;;;;;2.78;2.28;;;26.40;58.50;;;;;;4960632;28;20023;-85
2021/06/20 11:52:51;;;;;;;2.75;2.10;;;26.50;58.50;;;;;;4989845;28;20030;-84
2021/06/20 11:55:20;;;;;;;;;;;26.50;58.50;;;;;;4990380;28;20125;-84
2021/06/20 11:57:47;;;;;;;2.88;2.08;;;26.60;58.40;;;;;;4991837;28;19910;-85
2021/06/20 12:00:18;;;;;;;3.30;2.22;;;26.60;58.30;;;;;;4959963;28;20098;-85
2021/06/20 12:02:46;;;;;;;3.50;2.30;;;26.60;58.40;;;;;;4992152;28;20062;-85
2021/06/20 12:05:14;;;;;;;3.40;2.65;;;26.60;58.40;;;;;;4975464;28;20118;-85
2021/06/20 12:07:40;;;;;;;3.60;2.63;;;26.70;58.60;;;;;;4975651;28;20035;-84
2021/06/20 12:10:06;;;;;;;3.47;2.60;;;26.70;58.60;;;;;;4974988;28;20030;-85
2021/06/20 12:12:32;;;;;;;3.88;2.72;;;26.70;58.50;;;;;;4956146;28;20543;-85
2021/06/20 12:15:01;;;;;;;3.63;2.75;;;26.80;58.50;;;;;;4966638;28;20468;-85
2021/06/20 12:17:28;;;;;;;3.88;2.70;;;26.80;58.50;;;;;;4974942;28;20121;-84
2021/06/20 12:19:57;;;;;;;3.92;2.47;;;26.80;58.40;;;;;;5001780;28;20057;-84
2021/06/20 12:22:24;;;;;;;2.80;2.15;;;26.90;58.40;;;;;;4959544;28;20527;-85
2021/06/20 12:24:58;;;;;;;3.40;2.38;;;26.90;58.30;;;;;;4975176;28;20031;-84
2021/06/20 12:27:33;;;;;;;4.13;2.88;;;26.90;58.30;;;;;;4984411;28;20117;-85
2021/06/20 12:30:24;;;;;;;3.72;2.60;;;26.90;58.20;;;;;;4974946;28;20034;-83
2021/06/20 12:32:51;;;;;;;3.90;2.85;;;27.00;58.20;;;;;;4971415;28;20535;-84
2021/06/20 12:35:30;;;;;;;3.42;2.53;;;27.00;58.00;;;;;;4959577;28;20547;-84
2021/06/20 12:37:57;;;;;;;3.75;2.70;;;27.00;58.00;;;;;;4974844;28;20035;-84
2021/06/20 12:40:27;;;;;;;3.47;2.60;;;27.10;58.00;;;;;;4975315;28;20027;-84
2021/06/20 12:42:56;;;;;;;3.72;2.65;;;27.10;58.00;;;;;;4975723;28;20034;-84
2021/06/20 12:45:25;;;;;;;3.40;2.50;;;27.10;58.00;;;;;;4974835;28;20069;-83
2021/06/20 12:47:52;;;;;;;3.72;2.53;;;27.20;58.00;;;;;;4957747;28;20302;-83
2021/06/20 12:50:39;;;;;;;2.90;2.28;;;27.20;58.00;;;;;;4975813;28;20027;-84